createdAt,value
2023-09-11T00:01:28.943Z,14.87
2023-09-11T00:04:18.101Z,14.85
2023-09-11T00:07:31.590Z,14.82
2023-09-11T00:11:01.103Z,14.81
2023-09-11T00:14:29.409Z,14.77
2023-09-11T00:18:19.075Z,14.69
2023-09-11T00:21:51.651Z,14.70
2023-09-11T00:25:14.363Z,14.67
2023-09-11T00:28:38.647Z,14.66
2023-09-11T00:32:27.285Z,14.63
2023-09-11T00:35:51.108Z,14.65
2023-09-11T00:39:04.397Z,14.61
2023-09-11T00:41:46.153Z,14.60
2023-09-11T00:44:43.167Z,14.61
2023-09-11T00:47:15.022Z,14.60
2023-09-11T00:50:13.221Z,14.57
2023-09-11T00:52:45.394Z,14.57
2023-09-11T00:55:34.539Z,14.55
2023-09-11T00:58:30.582Z,14.55
2023-09-11T01:01:22.042Z,14.55
2023-09-11T01:04:05.115Z,14.51
2023-09-11T01:06:44.197Z,14.50
2023-09-11T01:09:42.149Z,14.51
2023-09-11T01:12:34.200Z,14.49
2023-09-11T01:15:29.054Z,14.46
2023-09-11T01:18:57.024Z,14.45
2023-09-11T01:22:11.397Z,14.44
2023-09-11T01:25:24.641Z,14.44
2023-09-11T01:29:01.642Z,14.38
2023-09-11T01:32:34.548Z,14.35
2023-09-11T01:35:13.768Z,14.35
2023-09-11T01:38:57.030Z,14.28
2023-09-11T01:42:26.560Z,14.25
2023-09-11T01:45:37.290Z,14.27
2023-09-11T01:49:04.699Z,14.28
2023-09-11T01:52:14.113Z,14.26
2023-09-11T01:55:26.182Z,14.21
2023-09-11T01:59:06.651Z,14.21
2023-09-11T02:02:56.597Z,14.13
2023-09-11T02:06:45.297Z,14.11
2023-09-11T02:10:20.507Z,14.08
2023-09-11T02:13:43.199Z,14.05
2023-09-11T02:17:14.141Z,14.01
2023-09-11T02:20:49.123Z,14.00
2023-09-11T02:24:21.604Z,13.97
2023-09-11T02:27:51.117Z,13.93
2023-09-11T02:30:55.303Z,13.92
2023-09-11T02:34:20.540Z,13.96
2023-09-11T02:37:29.215Z,13.92
2023-09-11T02:41:18.890Z,13.90
2023-09-11T02:44:49.153Z,13.94
2023-09-11T02:48:28.957Z,13.89
2023-09-11T02:51:41.476Z,13.88
2023-09-11T02:54:50.777Z,13.92
2023-09-11T02:58:20.283Z,13.88
2023-09-11T03:01:34.357Z,13.87
2023-09-11T03:04:19.152Z,13.87
2023-09-11T03:07:27.676Z,13.85
2023-09-11T03:10:09.157Z,13.86
2023-09-11T03:13:20.995Z,13.84
2023-09-11T03:16:38.888Z,13.84
2023-09-11T03:19:25.037Z,13.78
2023-09-11T03:22:23.931Z,13.70
2023-09-11T03:25:47.342Z,13.71
2023-09-11T03:29:37.137Z,13.67
2023-09-11T03:33:05.325Z,13.62
2023-09-11T03:36:21.357Z,13.62
2023-09-11T03:39:10.435Z,13.58
2023-09-11T03:41:49.042Z,13.54
2023-09-11T03:45:03.703Z,13.54
2023-09-11T03:47:55.678Z,13.55
2023-09-11T03:51:14.795Z,13.58
2023-09-11T03:55:04.419Z,13.56
2023-09-11T03:58:54.008Z,13.52
2023-09-11T04:02:06.155Z,13.53
2023-09-11T04:05:49.036Z,13.53
2023-09-11T04:08:59.797Z,13.51
2023-09-11T04:12:21.733Z,13.52
2023-09-11T04:15:44.030Z,13.54
2023-09-11T04:18:41.640Z,13.58
2023-09-11T04:21:51.082Z,13.66
2023-09-11T04:24:43.416Z,13.66
2023-09-11T04:27:25.064Z,13.68
2023-09-11T04:30:22.210Z,13.67
2023-09-11T04:33:06.409Z,13.71
2023-09-11T04:36:29.162Z,13.73
2023-09-11T04:39:43.671Z,13.78
2023-09-11T04:42:52.548Z,13.84
2023-09-11T04:45:36.222Z,13.90
2023-09-11T04:48:51.555Z,13.95
2023-09-11T04:51:47.265Z,14.00
2023-09-11T04:54:22.055Z,14.06
2023-09-11T04:57:18.745Z,14.12
2023-09-11T05:00:01.418Z,14.15
2023-09-11T05:02:37.189Z,14.22
2023-09-11T05:05:25.335Z,14.26
2023-09-11T05:08:07.979Z,14.32
2023-09-11T05:11:13.157Z,14.35
2023-09-11T05:14:23.383Z,14.43
2023-09-11T05:18:03.501Z,14.55
2023-09-11T05:21:38.036Z,14.65
2023-09-11T05:24:54.717Z,14.67
2023-09-11T05:28:24.117Z,14.76
2023-09-11T05:31:08.677Z,14.85
2023-09-11T05:34:37.002Z,14.94
2023-09-11T05:38:25.280Z,15.09
2023-09-11T05:41:14.480Z,15.31
2023-09-11T05:44:26.184Z,15.47
2023-09-11T05:47:38.540Z,15.60
2023-09-11T05:50:38.682Z,15.76
2023-09-11T05:54:01.199Z,15.94
2023-09-11T05:57:50.924Z,16.20
2023-09-11T06:01:28.267Z,16.40
2023-09-11T06:05:01.056Z,16.68
2023-09-11T06:08:50.493Z,16.88
2023-09-11T06:12:13.084Z,17.22
2023-09-11T06:15:50.548Z,17.46
2023-09-11T06:19:40.234Z,17.75
2023-09-11T06:23:21.246Z,18.04
2023-09-11T06:26:05.986Z,18.41
2023-09-11T06:29:11.471Z,18.60
2023-09-11T06:32:21.005Z,18.84
2023-09-11T06:35:32.976Z,19.17
2023-09-11T06:39:22.456Z,19.53
2023-09-11T06:42:15.016Z,19.78
2023-09-11T06:45:34.427Z,19.94
2023-09-11T06:48:37.018Z,20.26
2023-09-11T06:51:12.532Z,20.72
2023-09-11T06:53:55.808Z,21.05
2023-09-11T06:57:07.676Z,21.21
2023-09-11T07:00:17.393Z,21.10
2023-09-11T07:04:07.232Z,21.37
2023-09-11T07:07:29.672Z,21.59
2023-09-11T07:10:34.097Z,21.57
2023-09-11T07:13:43.632Z,21.84
2023-09-11T07:16:15.299Z,21.79
2023-09-11T07:18:52.344Z,22.09
2023-09-11T07:21:53.204Z,22.19
2023-09-11T07:25:23.648Z,22.15
2023-09-11T07:28:26.169Z,22.30
2023-09-11T07:31:55.552Z,22.64
2023-09-11T07:34:45.624Z,23.01
2023-09-11T07:37:17.778Z,23.33
2023-09-11T07:40:11.752Z,23.10
2023-09-11T07:43:49.988Z,22.92
2023-09-11T07:47:23.204Z,22.92
2023-09-11T07:50:34.532Z,22.77
2023-09-11T07:53:07.144Z,23.05
2023-09-11T07:56:23.019Z,23.32
2023-09-11T07:59:38.877Z,23.29
2023-09-11T08:03:09.937Z,23.18
2023-09-11T08:06:16.985Z,23.87
2023-09-11T08:09:19.197Z,23.92
2023-09-11T08:13:08.587Z,23.95
2023-09-11T08:16:48.154Z,23.93
2023-09-11T08:20:08.229Z,23.93
2023-09-11T08:22:36.854Z,23.60
2023-09-11T08:25:15.112Z,23.80
2023-09-11T08:28:07.104Z,23.81
2023-09-11T08:30:41.023Z,23.74
2023-09-11T08:33:23.086Z,23.91
2023-09-11T08:36:01.440Z,24.50
2023-09-11T08:38:50.769Z,24.66
2023-09-11T08:42:16.828Z,24.57
2023-09-11T08:44:48.959Z,24.64
2023-09-11T08:47:43.202Z,25.09
2023-09-11T08:50:12.665Z,24.95
2023-09-11T08:52:48.157Z,24.98
2023-09-11T08:56:00.207Z,25.11
2023-09-11T08:59:03.914Z,25.21
2023-09-11T09:01:59.242Z,25.88
2023-09-11T09:04:39.213Z,26.07
2023-09-11T09:07:14.260Z,26.04
2023-09-11T09:10:46.178Z,26.01
2023-09-11T09:13:57.721Z,26.08
2023-09-11T09:16:39.019Z,26.02
2023-09-11T09:19:40.518Z,25.84
2023-09-11T09:22:53.492Z,25.74
2023-09-11T09:25:29.841Z,26.17
2023-09-11T09:28:38.206Z,26.05
2023-09-11T09:31:27.652Z,26.17
2023-09-11T09:34:00.272Z,26.24
2023-09-11T09:37:09.493Z,26.29
2023-09-11T09:39:45.809Z,26.07
2023-09-11T09:42:34.602Z,26.33
2023-09-11T09:46:06.485Z,26.46
2023-09-11T09:48:35.958Z,26.63
2023-09-11T09:51:10.576Z,26.94
2023-09-11T09:54:06.294Z,27.40
2023-09-11T09:56:57.049Z,28.22
2023-09-11T09:59:28.120Z,28.92
2023-09-11T10:01:57.156Z,29.50
2023-09-11T10:04:37.093Z,29.16
2023-09-11T10:07:13.211Z,28.94
2023-09-11T10:09:42.361Z,28.85
2023-09-11T10:12:16.693Z,28.68
2023-09-11T10:15:08.485Z,28.71
2023-09-11T10:17:38.769Z,28.66
2023-09-11T10:20:17.598Z,29.36
2023-09-11T10:23:13.621Z,29.47
2023-09-11T10:25:53.000Z,29.41
2023-09-11T10:28:30.389Z,29.92
2023-09-11T10:31:51.610Z,29.18
2023-09-11T10:34:37.551Z,28.61
2023-09-11T10:37:24.410Z,28.93
2023-09-11T10:39:55.820Z,29.98
2023-09-11T10:42:24.659Z,30.95
2023-09-11T10:44:54.226Z,31.86
2023-09-11T10:47:24.332Z,32.82
2023-09-11T10:49:57.668Z,33.14
2023-09-11T10:52:49.143Z,32.06
2023-09-11T10:55:19.307Z,30.75
2023-09-11T10:58:00.177Z,30.47
2023-09-11T11:00:40.174Z,30.43
2023-09-11T11:03:09.069Z,29.94
2023-09-11T11:05:38.808Z,30.48
2023-09-11T11:08:09.661Z,31.28
2023-09-11T11:10:53.188Z,32.34
2023-09-11T11:13:27.559Z,33.06
2023-09-11T11:16:20.639Z,32.72
2023-09-11T11:18:53.491Z,32.67
2023-09-11T11:21:22.505Z,32.72
2023-09-11T11:24:01.623Z,33.02
2023-09-11T11:26:39.152Z,32.68
2023-09-11T11:29:08.307Z,33.02
2023-09-11T11:31:38.455Z,32.87
2023-09-11T11:34:08.136Z,32.05
2023-09-11T11:36:40.144Z,32.14
2023-09-11T11:39:09.393Z,32.64
2023-09-11T11:41:38.780Z,32.94
2023-09-11T11:44:08.028Z,33.08
2023-09-11T11:46:36.878Z,32.72
2023-09-11T11:49:05.678Z,32.00
2023-09-11T11:51:34.408Z,30.67
2023-09-11T11:54:23.476Z,29.92
2023-09-11T11:56:56.970Z,30.64
2023-09-11T11:59:52.962Z,31.19
2023-09-11T12:02:28.651Z,31.16
2023-09-11T12:04:57.400Z,30.73
2023-09-11T12:07:45.326Z,30.46
2023-09-11T12:10:45.545Z,29.85
2023-09-11T12:13:42.975Z,29.68
2023-09-11T12:16:31.320Z,29.41
2023-09-11T12:19:05.935Z,29.25
2023-09-11T12:21:49.857Z,29.91
2023-09-11T12:24:20.805Z,30.83
2023-09-11T12:26:49.499Z,30.78
2023-09-11T12:29:24.433Z,30.55
2023-09-11T12:31:53.250Z,30.53
2023-09-11T12:34:21.781Z,30.44
2023-09-11T12:36:50.465Z,30.09
2023-09-11T12:39:19.516Z,29.82
2023-09-11T12:41:48.570Z,29.42
2023-09-11T12:44:37.554Z,29.47
2023-09-11T12:47:06.974Z,29.97
2023-09-11T12:49:35.873Z,30.47
2023-09-11T12:52:08.088Z,30.88
2023-09-11T12:54:37.068Z,30.54
2023-09-11T12:57:08.728Z,30.44
2023-09-11T12:59:40.460Z,30.80
2023-09-11T13:02:12.488Z,31.25
2023-09-11T13:04:44.719Z,30.85
2023-09-11T13:07:13.581Z,30.73
2023-09-11T13:09:42.842Z,30.56
2023-09-11T13:12:17.230Z,30.73
2023-09-11T13:15:07.345Z,30.84
2023-09-11T13:17:37.869Z,31.38
2023-09-11T13:20:07.326Z,32.00
2023-09-11T13:22:36.176Z,32.74
2023-09-11T13:25:05.840Z,32.87
2023-09-11T13:27:41.073Z,32.59
2023-09-11T13:30:10.406Z,32.31
2023-09-11T13:32:39.478Z,32.03
2023-09-11T13:35:08.970Z,31.77
2023-09-11T13:37:37.819Z,32.20
2023-09-11T13:40:17.650Z,32.07
2023-09-11T13:42:46.332Z,31.47
2023-09-11T13:45:21.494Z,31.52
2023-09-11T13:47:51.426Z,31.38
2023-09-11T13:50:20.328Z,31.30
2023-09-11T13:52:48.949Z,31.68
2023-09-11T13:55:17.911Z,31.89
2023-09-11T13:57:46.537Z,31.76
2023-09-11T14:00:15.723Z,31.68
2023-09-11T14:02:47.767Z,31.69
2023-09-11T14:05:16.529Z,31.78
2023-09-11T14:07:45.421Z,31.82
2023-09-11T14:10:14.263Z,31.88
2023-09-11T14:12:42.873Z,31.79
2023-09-11T14:15:13.941Z,31.41
2023-09-11T14:17:51.093Z,31.45
2023-09-11T14:20:28.729Z,31.34
2023-09-11T14:23:17.872Z,31.11
2023-09-11T14:26:22.919Z,31.12
2023-09-11T14:29:02.732Z,31.49
2023-09-11T14:32:15.862Z,31.63
2023-09-11T14:35:22.011Z,31.34
2023-09-11T14:37:50.884Z,30.95
2023-09-11T14:40:19.623Z,30.98
2023-09-11T14:43:11.452Z,30.86
2023-09-11T14:45:40.207Z,30.88
2023-09-11T14:48:11.363Z,30.41
2023-09-11T14:50:40.372Z,30.00
2023-09-11T14:53:09.109Z,29.54
2023-09-11T14:55:37.839Z,29.36
2023-09-11T14:58:27.723Z,29.50
2023-09-11T15:01:10.305Z,29.35
2023-09-11T15:03:51.653Z,29.14
2023-09-11T15:06:28.389Z,29.01
2023-09-11T15:09:02.519Z,29.25
2023-09-11T15:11:56.985Z,29.42
2023-09-11T15:14:35.156Z,29.12
2023-09-11T15:17:04.466Z,29.14
2023-09-11T15:19:33.279Z,29.44
2023-09-11T15:22:02.242Z,29.76
2023-09-11T15:24:31.072Z,29.95
2023-09-11T15:27:02.124Z,29.96
2023-09-11T15:29:31.458Z,29.86
2023-09-11T15:32:12.742Z,29.86
2023-09-11T15:34:43.762Z,29.79
2023-09-11T15:37:37.331Z,29.75
2023-09-11T15:40:10.179Z,29.53
2023-09-11T15:42:39.069Z,29.35
2023-09-11T15:45:16.195Z,29.24
2023-09-11T15:48:02.387Z,29.17
2023-09-11T15:50:33.791Z,29.05
2023-09-11T15:53:41.701Z,28.88
2023-09-11T15:56:25.490Z,28.62
2023-09-11T16:00:01.195Z,28.34
2023-09-11T16:03:03.850Z,28.03
2023-09-11T16:05:46.806Z,27.79
2023-09-11T16:08:38.949Z,27.54
2023-09-11T16:11:43.918Z,27.14
2023-09-11T16:14:49.014Z,26.86
2023-09-11T16:17:52.495Z,26.57
2023-09-11T16:21:41.492Z,26.20
2023-09-11T16:24:38.466Z,25.76
2023-09-11T16:28:00.656Z,25.37
2023-09-11T16:31:33.228Z,25.17
2023-09-11T16:34:45.745Z,24.95
2023-09-11T16:38:18.031Z,24.77
2023-09-11T16:41:30.486Z,24.50
2023-09-11T16:44:53.318Z,24.18
2023-09-11T16:48:25.991Z,23.92
2023-09-11T16:51:41.082Z,23.64
2023-09-11T16:54:53.166Z,23.35
2023-09-11T16:58:43.001Z,23.05
2023-09-11T17:01:52.371Z,22.81
2023-09-11T17:05:01.855Z,22.59
2023-09-11T17:08:41.314Z,22.42
2023-09-11T17:12:03.468Z,22.26
2023-09-11T17:15:32.906Z,22.11
2023-09-11T17:19:22.334Z,22.00
2023-09-11T17:23:01.819Z,21.78
2023-09-11T17:26:30.926Z,21.60
2023-09-11T17:29:10.017Z,21.36
2023-09-11T17:31:56.101Z,21.25
2023-09-11T17:35:25.404Z,21.16
2023-09-11T17:38:54.675Z,21.05
2023-09-11T17:41:56.635Z,20.96
2023-09-11T17:44:41.285Z,20.79
2023-09-11T17:47:35.690Z,20.72
2023-09-11T17:50:29.847Z,20.58
2023-09-11T17:53:29.066Z,20.49
2023-09-11T17:56:35.732Z,20.43
2023-09-11T17:59:48.019Z,20.31
2023-09-11T18:03:08.774Z,20.17
2023-09-11T18:06:21.363Z,20.08
2023-09-11T18:10:10.894Z,19.99
2023-09-11T18:12:43.048Z,19.87
2023-09-11T18:16:11.743Z,19.80
2023-09-11T18:19:00.884Z,19.83
2023-09-11T18:21:33.311Z,19.80
2023-09-11T18:24:05.443Z,19.75
2023-09-11T18:26:38.074Z,19.72
2023-09-11T18:29:18.272Z,19.67
2023-09-11T18:32:12.759Z,19.58
2023-09-11T18:34:59.227Z,19.55
2023-09-11T18:38:25.096Z,19.56
2023-09-11T18:41:34.835Z,19.47
2023-09-11T18:44:03.725Z,19.44
2023-09-11T18:47:36.003Z,19.44
2023-09-11T18:50:58.864Z,19.31
2023-09-11T18:54:28.492Z,19.08
2023-09-11T18:58:03.459Z,18.93
2023-09-11T19:01:47.469Z,18.81
2023-09-11T19:05:37.965Z,18.69
2023-09-11T19:09:07.357Z,18.56
2023-09-11T19:12:36.879Z,18.53
2023-09-11T19:16:26.677Z,18.44
2023-09-11T19:19:53.589Z,18.35
2023-09-11T19:23:34.710Z,18.39
2023-09-11T19:27:04.490Z,18.37
2023-09-11T19:30:54.514Z,18.37
2023-09-11T19:34:15.158Z,18.29
2023-09-11T19:37:58.345Z,18.18
2023-09-11T19:41:23.277Z,18.08
2023-09-11T19:44:14.714Z,18.02
2023-09-11T19:48:04.577Z,17.96
2023-09-11T19:51:30.203Z,17.82
2023-09-11T19:54:58.610Z,17.67
2023-09-11T19:58:28.060Z,17.64
2023-09-11T20:02:17.803Z,17.59
2023-09-11T20:06:08.215Z,17.51
2023-09-11T20:09:58.028Z,17.46
2023-09-11T20:13:47.561Z,17.36
2023-09-11T20:17:35.696Z,17.31
2023-09-11T20:21:25.553Z,17.32
2023-09-11T20:25:15.025Z,17.36
2023-09-11T20:28:45.413Z,17.34
2023-09-11T20:32:24.642Z,17.27
2023-09-11T20:36:14.511Z,17.24
2023-09-11T20:40:06.979Z,17.15
2023-09-11T20:43:04.193Z,17.05
2023-09-11T20:46:53.818Z,17.06
2023-09-11T20:50:43.649Z,17.01
2023-09-11T20:53:35.438Z,16.96
2023-09-11T20:57:24.686Z,16.95
2023-09-11T21:00:37.545Z,16.89
2023-09-11T21:04:27.665Z,16.84
2023-09-11T21:08:17.499Z,16.84
2023-09-11T21:12:06.858Z,16.83
2023-09-11T21:15:27.725Z,16.78
2023-09-11T21:19:17.570Z,16.74
2023-09-11T21:22:31.847Z,16.76
2023-09-11T21:26:04.235Z,16.75
2023-09-11T21:29:43.702Z,16.73
2023-09-11T21:32:44.393Z,16.73
2023-09-11T21:36:07.817Z,16.70
2023-09-11T21:39:47.432Z,16.67
2023-09-11T21:43:37.232Z,16.61
2023-09-11T21:47:06.800Z,16.56
2023-09-11T21:50:36.302Z,16.53
2023-09-11T21:54:14.892Z,16.48
2023-09-11T21:58:00.122Z,16.45
2023-09-11T22:01:31.607Z,16.41
2023-09-11T22:05:11.013Z,16.39
2023-09-11T22:08:39.034Z,16.31
2023-09-11T22:12:20.300Z,16.29
2023-09-11T22:15:48.816Z,16.21
2023-09-11T22:19:38.274Z,16.21
2023-09-11T22:23:27.892Z,16.20
2023-09-11T22:26:19.596Z,16.14
2023-09-11T22:29:40.044Z,16.10
2023-09-11T22:33:08.033Z,16.13
2023-09-11T22:36:57.545Z,16.10
2023-09-11T22:40:22.591Z,16.06
2023-09-11T22:43:52.018Z,16.07
2023-09-11T22:47:31.515Z,16.06
2023-09-11T22:51:19.850Z,15.97
2023-09-11T22:54:37.928Z,15.91
2023-09-11T22:58:12.940Z,15.94
2023-09-11T23:01:48.759Z,15.91
2023-09-11T23:04:46.352Z,15.86
2023-09-11T23:08:06.725Z,15.87
2023-09-11T23:11:14.415Z,15.90
2023-09-11T23:14:26.703Z,15.87
2023-09-11T23:17:56.215Z,15.81
2023-09-11T23:21:37.228Z,15.79
2023-09-11T23:25:18.129Z,15.76
2023-09-11T23:28:11.900Z,15.72
2023-09-11T23:31:38.169Z,15.69
2023-09-11T23:34:10.140Z,15.66
2023-09-11T23:37:41.449Z,15.61
2023-09-11T23:40:50.698Z,15.59
2023-09-11T23:43:31.358Z,15.59
2023-09-11T23:46:23.456Z,15.59
2023-09-11T23:49:25.197Z,15.56
2023-09-11T23:53:08.679Z,15.52
2023-09-11T23:56:58.075Z,15.48
